createdAt,value
2018-05-26T00:00:42.176Z,1013.36
2018-05-26T00:01:42.152Z,1013.36
2018-05-26T00:02:42.139Z,1013.38
2018-05-26T00:03:42.089Z,1013.34
2018-05-26T00:04:42.068Z,1013.34
2018-05-26T00:05:42.008Z,1013.34
2018-05-26T00:06:41.959Z,1013.35
2018-05-26T00:07:41.931Z,1013.35
2018-05-26T00:08:41.921Z,1013.36
2018-05-26T00:09:41.855Z,1013.32
2018-05-26T00:10:41.839Z,1013.34
2018-05-26T00:11:41.808Z,1013.34
2018-05-26T00:12:41.761Z,1013.37
2018-05-26T00:13:41.711Z,1013.33
2018-05-26T00:14:41.725Z,1013.34
2018-05-26T00:15:41.671Z,1013.32
2018-05-26T00:16:41.629Z,1013.32
2018-05-26T00:17:41.574Z,1013.29
2018-05-26T00:18:41.536Z,1013.27
2018-05-26T00:19:41.493Z,1013.29
2018-05-26T00:20:41.493Z,1013.26
2018-05-26T00:21:41.423Z,1013.24
2018-05-26T00:22:41.409Z,1013.22
2018-05-26T00:23:41.353Z,1013.24
2018-05-26T00:24:41.310Z,1013.20
2018-05-26T00:25:41.284Z,1013.23
2018-05-26T00:26:41.254Z,1013.23
2018-05-26T00:27:41.190Z,1013.25
2018-05-26T00:28:41.163Z,1013.26
2018-05-26T00:29:41.125Z,1013.28
2018-05-26T00:30:41.114Z,1013.26
2018-05-26T00:31:41.071Z,1013.28
2018-05-26T00:32:41.041Z,1013.32
2018-05-26T00:33:40.978Z,1013.32
2018-05-26T00:34:40.951Z,1013.31
2018-05-26T00:35:40.933Z,1013.30
2018-05-26T00:36:40.881Z,1013.31
2018-05-26T00:37:40.838Z,1013.27
2018-05-26T00:38:40.814Z,1013.31
2018-05-26T00:39:40.750Z,1013.28
2018-05-26T00:40:40.720Z,1013.29
2018-05-26T00:41:40.688Z,1013.32
2018-05-26T00:42:40.697Z,1013.32
2018-05-26T00:43:40.604Z,1013.33
2018-05-26T00:44:40.573Z,1013.32
2018-05-26T00:45:40.569Z,1013.35
2018-05-26T00:46:40.493Z,1013.37
2018-05-26T00:47:50.239Z,1013.36
2018-05-26T00:48:40.497Z,1013.39
2018-05-26T00:49:40.391Z,1013.35
2018-05-26T00:50:40.383Z,1013.34
2018-05-26T00:51:40.337Z,1013.37
2018-05-26T00:52:40.304Z,1013.37
2018-05-26T00:53:40.252Z,1013.37
2018-05-26T00:54:40.208Z,1013.38
2018-05-26T00:55:40.205Z,1013.38
2018-05-26T00:56:40.128Z,1013.41
2018-05-26T00:57:40.091Z,1013.38
2018-05-26T00:58:40.044Z,1013.41
2018-05-26T00:59:40.042Z,1013.36
2018-05-26T01:00:39.972Z,1013.39
2018-05-26T01:01:39.950Z,1013.38
2018-05-26T01:02:39.912Z,1013.37
2018-05-26T01:03:39.855Z,1013.37
2018-05-26T01:04:39.825Z,1013.38
2018-05-26T01:05:39.825Z,1013.37
2018-05-26T01:06:39.767Z,1013.38
2018-05-26T01:07:39.727Z,1013.38
2018-05-26T01:08:39.696Z,1013.37
2018-05-26T01:09:39.638Z,1013.38
2018-05-26T01:10:49.435Z,1013.38
2018-05-26T01:11:39.571Z,1013.35
2018-05-26T01:12:39.553Z,1013.39
2018-05-26T01:13:39.515Z,1013.41
2018-05-26T01:14:40.070Z,1013.39
2018-05-26T01:15:39.431Z,1013.43
2018-05-26T01:16:39.412Z,1013.37
2018-05-26T01:17:39.335Z,1013.39
2018-05-26T01:18:39.302Z,1013.38
2018-05-26T01:19:39.268Z,1013.39
2018-05-26T01:20:39.215Z,1013.45
2018-05-26T01:21:39.215Z,1013.44
2018-05-26T01:22:39.167Z,1013.45
2018-05-26T01:23:39.121Z,1013.48
2018-05-26T01:24:39.082Z,1013.43
2018-05-26T01:25:39.057Z,1013.47
2018-05-26T01:26:39.039Z,1013.41
2018-05-26T01:27:38.971Z,1013.40
2018-05-26T01:28:38.934Z,1013.40
2018-05-26T01:29:38.898Z,1013.40
2018-05-26T01:30:38.856Z,1013.44
2018-05-26T01:31:38.856Z,1013.46
2018-05-26T01:32:38.837Z,1013.43
2018-05-26T01:33:38.742Z,1013.42
2018-05-26T01:34:49.370Z,1013.38
2018-05-26T01:35:38.706Z,1013.39
2018-05-26T01:36:38.628Z,1013.36
2018-05-26T01:37:38.611Z,1013.39
2018-05-26T01:38:38.587Z,1013.38
2018-05-26T01:39:38.508Z,1013.39
2018-05-26T01:40:38.559Z,1013.40
2018-05-26T01:41:38.471Z,1013.39
2018-05-26T01:42:38.425Z,1013.40
2018-05-26T01:43:38.392Z,1013.39
2018-05-26T01:44:38.404Z,1013.35
2018-05-26T01:45:38.298Z,1013.39
2018-05-26T01:46:38.291Z,1013.37
2018-05-26T01:47:38.315Z,1013.34
2018-05-26T01:48:38.183Z,1013.34
2018-05-26T01:49:38.296Z,1013.29
2018-05-26T01:50:38.210Z,1013.27
2018-05-26T01:51:38.145Z,1013.25
2018-05-26T01:52:38.031Z,1013.26
2018-05-26T01:53:38.003Z,1013.26
2018-05-26T01:54:37.982Z,1013.23
2018-05-26T01:55:37.950Z,1013.20
2018-05-26T01:56:37.903Z,1013.22
2018-05-26T01:57:48.778Z,1013.21
2018-05-26T01:58:37.800Z,1013.19
2018-05-26T01:59:37.769Z,1013.20
2018-05-26T02:00:37.786Z,1013.20
2018-05-26T02:01:37.731Z,1013.21
2018-05-26T02:02:37.649Z,1013.24
2018-05-26T02:03:37.619Z,1013.22
2018-05-26T02:04:37.625Z,1013.23
2018-05-26T02:05:37.633Z,1013.22
2018-05-26T02:06:37.730Z,1013.26
2018-05-26T02:07:37.454Z,1013.29
2018-05-26T02:08:37.424Z,1013.26
2018-05-26T02:09:37.380Z,1013.27
2018-05-26T02:10:37.350Z,1013.28
2018-05-26T02:11:37.340Z,1013.26
2018-05-26T02:12:37.269Z,1013.26
2018-05-26T02:13:37.237Z,1013.31
2018-05-26T02:14:37.204Z,1013.27
2018-05-26T02:15:37.153Z,1013.25
2018-05-26T02:16:37.155Z,1013.27
2018-05-26T02:17:37.087Z,1013.24
2018-05-26T02:18:37.037Z,1013.28
2018-05-26T02:19:36.998Z,1013.23
2018-05-26T02:20:36.962Z,1013.24
2018-05-26T02:21:46.857Z,1013.26
2018-05-26T02:22:36.902Z,1013.26
2018-05-26T02:23:36.880Z,1013.23
2018-05-26T02:24:36.814Z,1013.24
2018-05-26T02:25:36.775Z,1013.22
2018-05-26T02:26:36.754Z,1013.20
2018-05-26T02:27:36.741Z,1013.17
2018-05-26T02:28:36.662Z,1013.21
2018-05-26T02:29:36.665Z,1013.19
2018-05-26T02:30:36.595Z,1013.20
2018-05-26T02:31:36.545Z,1013.17
2018-05-26T02:32:36.544Z,1013.18
2018-05-26T02:33:36.534Z,1013.19
2018-05-26T02:34:36.458Z,1013.16
2018-05-26T02:35:36.414Z,1013.18
2018-05-26T02:36:36.382Z,1013.17
2018-05-26T02:37:36.325Z,1013.15
2018-05-26T02:38:36.295Z,1013.11
2018-05-26T02:39:36.285Z,1013.16
2018-05-26T02:40:36.224Z,1013.14
2018-05-26T02:41:36.186Z,1013.13
2018-05-26T02:42:36.147Z,1013.12
2018-05-26T02:43:36.095Z,1013.16
2018-05-26T02:44:46.886Z,1013.19
2018-05-26T02:45:36.024Z,1013.22
2018-05-26T02:46:35.982Z,1013.20
2018-05-26T02:47:35.959Z,1013.21
2018-05-26T02:48:35.908Z,1013.23
2018-05-26T02:49:35.865Z,1013.23
2018-05-26T02:50:35.874Z,1013.21
2018-05-26T02:51:35.819Z,1013.20
2018-05-26T02:52:35.790Z,1013.24
2018-05-26T02:53:35.740Z,1013.22
2018-05-26T02:54:35.677Z,1013.23
2018-05-26T02:55:35.634Z,1013.27
2018-05-26T02:56:35.638Z,1013.27
2018-05-26T02:57:35.566Z,1013.27
2018-05-26T02:58:35.540Z,1013.27
2018-05-26T02:59:35.498Z,1013.27
2018-05-26T03:00:35.456Z,1013.21
2018-05-26T03:01:35.419Z,1013.20
2018-05-26T03:02:35.426Z,1013.21
2018-05-26T03:03:35.365Z,1013.20
2018-05-26T03:04:35.324Z,1013.17
2018-05-26T03:05:35.274Z,1013.19
2018-05-26T03:06:35.243Z,1013.15
2018-05-26T03:07:35.200Z,1013.16
2018-05-26T03:08:45.290Z,1013.17
2018-05-26T03:09:35.102Z,1013.14
2018-05-26T03:10:35.137Z,1013.13
2018-05-26T03:11:35.032Z,1013.09
2018-05-26T03:12:35.109Z,1013.09
2018-05-26T03:13:35.016Z,1013.05
2018-05-26T03:14:34.963Z,1013.08
2018-05-26T03:15:34.885Z,1013.10
2018-05-26T03:16:35.067Z,1013.12
2018-05-26T03:17:34.802Z,1013.05
2018-05-26T03:18:34.756Z,1013.09
2018-05-26T03:19:34.755Z,1013.11
2018-05-26T03:20:34.697Z,1013.13
2018-05-26T03:21:34.654Z,1013.13
2018-05-26T03:22:34.629Z,1013.09
2018-05-26T03:23:34.591Z,1013.12
2018-05-26T03:24:34.528Z,1013.13
2018-05-26T03:25:34.512Z,1013.16
2018-05-26T03:26:34.454Z,1013.17
2018-05-26T03:27:34.414Z,1013.19
2018-05-26T03:28:34.392Z,1013.21
2018-05-26T03:29:34.355Z,1013.27
2018-05-26T03:30:34.348Z,1013.28
2018-05-26T03:31:45.486Z,1013.29
2018-05-26T03:32:34.260Z,1013.30
2018-05-26T03:33:34.216Z,1013.28
2018-05-26T03:34:34.161Z,1013.29
2018-05-26T03:35:34.119Z,1013.30
2018-05-26T03:36:34.097Z,1013.29
2018-05-26T03:37:34.041Z,1013.29
2018-05-26T03:38:34.003Z,1013.27
2018-05-26T03:39:33.974Z,1013.28
2018-05-26T03:40:33.927Z,1013.25
2018-05-26T03:41:33.910Z,1013.25
2018-05-26T03:42:33.880Z,1013.29
2018-05-26T03:43:33.810Z,1013.31
2018-05-26T03:44:33.774Z,1013.31
2018-05-26T03:45:33.737Z,1013.29
2018-05-26T03:46:33.723Z,1013.34
2018-05-26T03:47:33.697Z,1013.34
2018-05-26T03:48:33.640Z,1013.34
2018-05-26T03:49:33.581Z,1013.34
2018-05-26T03:50:33.548Z,1013.38
2018-05-26T03:51:33.519Z,1013.38
2018-05-26T03:52:33.503Z,1013.35
2018-05-26T03:53:33.433Z,1013.43
2018-05-26T03:54:33.399Z,1013.39
2018-05-26T03:55:43.454Z,1013.39
2018-05-26T03:56:33.312Z,1013.48
2018-05-26T03:57:33.283Z,1013.43
2018-05-26T03:58:33.270Z,1013.46
2018-05-26T03:59:33.196Z,1013.47
2018-05-26T04:00:33.164Z,1013.49
2018-05-26T04:01:33.135Z,1013.44
2018-05-26T04:02:33.110Z,1013.47
2018-05-26T04:03:33.066Z,1013.45
2018-05-26T04:04:33.047Z,1013.48
2018-05-26T04:05:32.969Z,1013.52
2018-05-26T04:06:32.958Z,1013.53
2018-05-26T04:07:32.897Z,1013.54
2018-05-26T04:08:32.858Z,1013.52
2018-05-26T04:09:32.880Z,1013.56
2018-05-26T04:10:32.822Z,1013.56
2018-05-26T04:11:32.775Z,1013.58
2018-05-26T04:12:32.720Z,1013.60
2018-05-26T04:13:32.674Z,1013.61
2018-05-26T04:14:32.661Z,1013.64
2018-05-26T04:15:32.674Z,1013.62
2018-05-26T04:16:32.579Z,1013.62
2018-05-26T04:17:42.987Z,1013.63
2018-05-26T04:18:32.477Z,1013.66
2018-05-26T04:19:32.450Z,1013.64
2018-05-26T04:20:32.420Z,1013.66
2018-05-26T04:21:32.408Z,1013.69
2018-05-26T04:22:32.341Z,1013.66
2018-05-26T04:23:32.291Z,1013.69
2018-05-26T04:24:32.252Z,1013.69
2018-05-26T04:25:32.214Z,1013.73
2018-05-26T04:26:32.204Z,1013.74
2018-05-26T04:27:32.172Z,1013.74
2018-05-26T04:28:32.111Z,1013.77
2018-05-26T04:29:32.060Z,1013.75
2018-05-26T04:30:32.256Z,1013.75
2018-05-26T04:31:32.008Z,1013.75
2018-05-26T04:32:31.983Z,1013.77
2018-05-26T04:33:31.945Z,1013.78
2018-05-26T04:34:31.868Z,1013.79
2018-05-26T04:35:31.840Z,1013.80
2018-05-26T04:36:31.807Z,1013.86
2018-05-26T04:37:31.762Z,1013.90
2018-05-26T04:38:31.721Z,1013.91
2018-05-26T04:39:31.725Z,1013.97
2018-05-26T04:40:31.648Z,1013.99
2018-05-26T04:41:43.052Z,1014.01
2018-05-26T04:42:31.584Z,1014.02
2018-05-26T04:43:31.585Z,1014.02
2018-05-26T04:44:31.503Z,1014.01
2018-05-26T04:45:31.490Z,1014.01
2018-05-26T04:46:31.420Z,1014.02
2018-05-26T04:47:31.390Z,1013.98
2018-05-26T04:48:31.366Z,1014.00
2018-05-26T04:49:31.402Z,1013.92
2018-05-26T04:50:31.290Z,1013.99
2018-05-26T04:51:31.275Z,1013.98
2018-05-26T04:52:31.206Z,1014.00
2018-05-26T04:53:31.164Z,1014.03
2018-05-26T04:54:31.145Z,1014.04
2018-05-26T04:55:31.102Z,1014.05
2018-05-26T04:56:31.097Z,1014.06
2018-05-26T04:57:31.039Z,1014.11
2018-05-26T04:58:30.995Z,1014.08
2018-05-26T04:59:30.939Z,1014.11
2018-05-26T05:00:30.919Z,1014.13
2018-05-26T05:01:30.927Z,1014.16
2018-05-26T05:02:30.849Z,1014.18
2018-05-26T05:03:30.839Z,1014.17
2018-05-26T05:04:30.770Z,1014.19
2018-05-26T05:05:42.209Z,1014.25
2018-05-26T05:06:30.747Z,1014.25
2018-05-26T05:07:30.710Z,1014.29
2018-05-26T05:08:30.640Z,1014.30
2018-05-26T05:09:30.590Z,1014.30
2018-05-26T05:10:30.654Z,1014.28
2018-05-26T05:11:30.536Z,1014.34
2018-05-26T05:12:30.490Z,1014.35
2018-05-26T05:13:30.488Z,1014.37
2018-05-26T05:14:30.423Z,1014.39
2018-05-26T05:15:30.416Z,1014.38
2018-05-26T05:16:30.387Z,1014.38
2018-05-26T05:17:30.325Z,1014.42
2018-05-26T05:18:30.288Z,1014.41
2018-05-26T05:19:30.269Z,1014.45
2018-05-26T05:20:30.234Z,1014.48
2018-05-26T05:21:30.213Z,1014.53
2018-05-26T05:22:30.159Z,1014.55
2018-05-26T05:23:30.147Z,1014.56
2018-05-26T05:24:30.090Z,1014.53
2018-05-26T05:25:30.052Z,1014.54
2018-05-26T05:26:30.029Z,1014.55
2018-05-26T05:27:40.286Z,1014.57
2018-05-26T05:28:29.942Z,1014.59
2018-05-26T05:29:29.987Z,1014.59
2018-05-26T05:30:29.877Z,1014.66
2018-05-26T05:31:29.842Z,1014.67
2018-05-26T05:32:30.131Z,1014.64
2018-05-26T05:33:29.897Z,1014.71
2018-05-26T05:34:32.493Z,1014.77
2018-05-26T05:35:30.133Z,1014.74
2018-05-26T05:36:29.719Z,1014.79
2018-05-26T05:37:29.685Z,1014.81
2018-05-26T05:38:29.623Z,1014.83
2018-05-26T05:39:29.605Z,1014.80
2018-05-26T05:40:29.565Z,1014.74
2018-05-26T05:41:29.529Z,1014.77
2018-05-26T05:42:29.493Z,1014.84
2018-05-26T05:43:29.470Z,1014.85
2018-05-26T05:44:29.461Z,1014.86
2018-05-26T05:45:29.398Z,1014.89
2018-05-26T05:46:29.394Z,1014.92
2018-05-26T05:47:29.345Z,1014.89
2018-05-26T05:48:29.308Z,1014.92
2018-05-26T05:49:29.294Z,1014.92
2018-05-26T05:50:29.364Z,1014.93
2018-05-26T05:51:42.131Z,1014.92
2018-05-26T05:52:29.405Z,1014.94
2018-05-26T05:53:29.227Z,1014.98
2018-05-26T05:54:29.148Z,1014.98
2018-05-26T05:55:30.678Z,1014.99
2018-05-26T05:56:29.082Z,1014.97
2018-05-26T05:57:29.026Z,1015.02
2018-05-26T05:58:28.987Z,1015.02
2018-05-26T05:59:28.961Z,1015.07
2018-05-26T06:00:28.950Z,1015.07
2018-05-26T06:01:28.931Z,1015.10
2018-05-26T06:02:28.878Z,1015.11
2018-05-26T06:03:28.854Z,1015.17
2018-05-26T06:04:28.826Z,1015.26
2018-05-26T06:05:28.796Z,1015.41
2018-05-26T06:06:28.780Z,1015.39
2018-05-26T06:07:28.737Z,1015.39
2018-05-26T06:08:28.689Z,1015.37
2018-05-26T06:09:28.667Z,1015.40
2018-05-26T06:10:28.666Z,1015.39
2018-05-26T06:11:28.641Z,1015.41
2018-05-26T06:12:28.628Z,1015.36
2018-05-26T06:13:28.556Z,1015.39
2018-05-26T06:14:40.978Z,1015.44
2018-05-26T06:15:28.543Z,1015.43
2018-05-26T06:16:28.656Z,1015.42
2018-05-26T06:17:28.433Z,1015.47
2018-05-26T06:18:28.422Z,1015.48
2018-05-26T06:19:28.356Z,1015.46
2018-05-26T06:20:28.365Z,1015.48
2018-05-26T06:21:28.342Z,1015.49
2018-05-26T06:22:28.295Z,1015.50
2018-05-26T06:23:28.307Z,1015.49
2018-05-26T06:24:28.203Z,1015.54
2018-05-26T06:25:28.183Z,1015.52
2018-05-26T06:26:28.171Z,1015.56
2018-05-26T06:27:28.133Z,1015.61
2018-05-26T06:28:28.095Z,1015.73
2018-05-26T06:29:28.101Z,1015.84
2018-05-26T06:30:28.075Z,1015.87
2018-05-26T06:31:28.036Z,1015.91
2018-05-26T06:32:27.974Z,1016.01
2018-05-26T06:33:40.576Z,1016.08
2018-05-26T06:34:28.002Z,1016.17
2018-05-26T06:35:30.146Z,1016.18
2018-05-26T06:36:27.867Z,1016.21
2018-05-26T06:37:27.813Z,1016.23
2018-05-26T06:38:38.642Z,1016.21
2018-05-26T06:39:27.768Z,1016.28
2018-05-26T06:40:27.776Z,1016.31
2018-05-26T06:41:27.715Z,1016.33
2018-05-26T06:42:27.721Z,1016.32
2018-05-26T06:43:27.678Z,1016.26
2018-05-26T06:44:27.663Z,1016.28
2018-05-26T06:45:27.592Z,1016.20
2018-05-26T06:46:27.582Z,1016.18
2018-05-26T06:47:27.547Z,1016.18
2018-05-26T06:48:27.517Z,1016.15
2018-05-26T06:49:27.485Z,1016.07
2018-05-26T06:50:27.454Z,1016.08
2018-05-26T06:51:27.445Z,1016.08
2018-05-26T06:52:27.438Z,1016.07
2018-05-26T06:53:27.372Z,1016.01
2018-05-26T06:54:27.339Z,1016.06
2018-05-26T06:55:27.300Z,1015.97
2018-05-26T06:56:27.282Z,1015.86
2018-05-26T06:57:27.255Z,1015.84
2018-05-26T06:58:27.263Z,1015.85
2018-05-26T06:59:27.196Z,1015.80
2018-05-26T07:00:27.158Z,1015.82
2018-05-26T07:01:36.751Z,1015.79
2018-05-26T07:02:27.129Z,1015.79
2018-05-26T07:03:27.095Z,1015.76
2018-05-26T07:04:27.083Z,1015.74
2018-05-26T07:05:27.003Z,1015.69
2018-05-26T07:06:26.986Z,1015.66
2018-05-26T07:07:26.987Z,1015.72
2018-05-26T07:08:26.919Z,1015.69
2018-05-26T07:09:26.895Z,1015.68
2018-05-26T07:10:26.902Z,1015.66
2018-05-26T07:11:26.882Z,1015.66
2018-05-26T07:12:26.818Z,1015.63
2018-05-26T07:13:26.788Z,1015.64
2018-05-26T07:14:26.793Z,1015.65
2018-05-26T07:15:26.729Z,1015.65
2018-05-26T07:16:26.737Z,1015.67
2018-05-26T07:17:26.663Z,1015.61
2018-05-26T07:18:26.642Z,1015.64
2018-05-26T07:19:26.619Z,1015.61
2018-05-26T07:20:26.612Z,1015.56
2018-05-26T07:21:26.586Z,1015.57
2018-05-26T07:22:26.523Z,1015.59
2018-05-26T07:23:26.503Z,1015.57
2018-05-26T07:24:26.495Z,1015.57
2018-05-26T07:25:36.794Z,1015.52
2018-05-26T07:26:26.422Z,1015.52
2018-05-26T07:27:26.409Z,1015.50
2018-05-26T07:28:26.395Z,1015.47
2018-05-26T07:29:28.017Z,1015.50
2018-05-26T07:30:26.323Z,1015.51
2018-05-26T07:31:26.269Z,1015.52
2018-05-26T07:32:26.245Z,1015.52
2018-05-26T07:33:26.205Z,1015.56
2018-05-26T07:34:26.192Z,1015.51
2018-05-26T07:35:26.188Z,1015.54
2018-05-26T07:36:26.129Z,1015.52
2018-05-26T07:37:26.108Z,1015.54
2018-05-26T07:38:26.088Z,1015.57
2018-05-26T07:39:26.047Z,1015.55
2018-05-26T07:40:26.038Z,1015.57
2018-05-26T07:41:26.027Z,1015.54
2018-05-26T07:42:25.963Z,1015.61
2018-05-26T07:43:25.940Z,1015.61
2018-05-26T07:44:25.940Z,1015.62
2018-05-26T07:45:25.875Z,1015.60
2018-05-26T07:46:25.837Z,1015.63
2018-05-26T07:47:25.851Z,1015.65
2018-05-26T07:48:25.789Z,1015.62
2018-05-26T07:49:25.767Z,1015.63
2018-05-26T07:50:25.733Z,1015.67
2018-05-26T07:51:25.738Z,1015.66
2018-05-26T07:52:25.673Z,1015.63
2018-05-26T07:53:25.669Z,1015.62
2018-05-26T07:54:25.647Z,1015.62
2018-05-26T07:55:25.592Z,1015.61
2018-05-26T07:56:25.583Z,1015.62
2018-05-26T07:57:25.538Z,1015.65
2018-05-26T07:58:25.625Z,1015.65
2018-05-26T07:59:25.474Z,1015.64
2018-05-26T08:00:25.499Z,1015.59
2018-05-26T08:01:25.446Z,1015.62
2018-05-26T08:02:25.405Z,1015.66
2018-05-26T08:03:25.408Z,1015.66
2018-05-26T08:04:25.352Z,1015.63
2018-05-26T08:05:25.315Z,1015.64
2018-05-26T08:06:25.310Z,1015.58
2018-05-26T08:07:25.273Z,1015.59
2018-05-26T08:08:25.246Z,1015.56
2018-05-26T08:09:25.263Z,1015.56
2018-05-26T08:10:25.184Z,1015.65
2018-05-26T08:11:25.149Z,1015.62
2018-05-26T08:12:25.127Z,1015.63
2018-05-26T08:13:25.104Z,1015.65
2018-05-26T08:14:25.073Z,1015.64
2018-05-26T08:15:25.077Z,1015.67
2018-05-26T08:16:25.017Z,1015.71
2018-05-26T08:17:25.044Z,1015.69
2018-05-26T08:18:24.960Z,1015.74
2018-05-26T08:19:24.927Z,1015.77
2018-05-26T08:20:24.916Z,1015.71
2018-05-26T08:21:24.918Z,1015.76
2018-05-26T08:22:24.858Z,1015.75
2018-05-26T08:23:24.861Z,1015.75
2018-05-26T08:24:24.791Z,1015.76
2018-05-26T08:25:24.776Z,1015.77
2018-05-26T08:26:24.752Z,1015.74
2018-05-26T08:27:24.773Z,1015.76
2018-05-26T08:28:24.688Z,1015.77
2018-05-26T08:29:24.656Z,1015.79
2018-05-26T08:30:24.641Z,1015.85
2018-05-26T08:31:24.607Z,1015.84
2018-05-26T08:32:24.588Z,1015.79
2018-05-26T08:33:24.593Z,1015.82
2018-05-26T08:34:24.527Z,1015.85
2018-05-26T08:35:24.533Z,1015.87
2018-05-26T08:36:24.470Z,1015.83
2018-05-26T08:37:24.440Z,1015.88
2018-05-26T08:38:24.448Z,1015.95
2018-05-26T08:39:24.389Z,1015.96
2018-05-26T08:40:24.369Z,1016.05
2018-05-26T08:41:24.346Z,1016.07
2018-05-26T08:42:24.308Z,1016.03
2018-05-26T08:43:24.291Z,1016.00
2018-05-26T08:44:24.307Z,1015.93
2018-05-26T08:45:24.247Z,1015.97
2018-05-26T08:46:24.212Z,1016.00
2018-05-26T08:47:24.189Z,1016.00
2018-05-26T08:48:24.170Z,1016.06
2018-05-26T08:49:24.128Z,1016.10
2018-05-26T08:50:24.132Z,1016.04
2018-05-26T08:51:24.082Z,1016.03
2018-05-26T08:52:24.071Z,1016.03
2018-05-26T08:53:24.026Z,1016.09
2018-05-26T08:54:23.996Z,1016.21
2018-05-26T08:55:23.971Z,1016.19
2018-05-26T08:56:23.980Z,1016.14
2018-05-26T08:57:23.930Z,1016.24
2018-05-26T08:58:23.891Z,1016.31
2018-05-26T08:59:23.876Z,1016.35
2018-05-26T09:00:23.849Z,1016.24
2018-05-26T09:01:23.801Z,1016.16
2018-05-26T09:02:23.812Z,1016.21
2018-05-26T09:03:23.750Z,1016.28
2018-05-26T09:04:23.725Z,1016.18
2018-05-26T09:05:23.703Z,1016.40
2018-05-26T09:06:23.690Z,1016.63
2018-05-26T09:07:23.650Z,1016.39
2018-05-26T09:08:23.643Z,1016.27
2018-05-26T09:09:23.590Z,1016.24
2018-05-26T09:10:23.564Z,1016.15
2018-05-26T09:11:23.539Z,1016.10
2018-05-26T09:12:23.516Z,1015.99
2018-05-26T09:13:23.501Z,1015.97
2018-05-26T09:14:23.486Z,1015.93
2018-05-26T09:15:23.456Z,1015.95
2018-05-26T09:16:33.839Z,1015.87
2018-05-26T09:17:23.394Z,1015.91
2018-05-26T09:18:23.360Z,1015.90
2018-05-26T09:19:23.346Z,1015.96
2018-05-26T09:20:23.365Z,1015.95
2018-05-26T09:21:23.289Z,1015.92
2018-05-26T09:22:23.256Z,1015.95
2018-05-26T09:23:33.402Z,1015.95
2018-05-26T09:24:23.202Z,1015.93
2018-05-26T09:25:23.244Z,1015.91
2018-05-26T09:26:23.216Z,1015.94
2018-05-26T09:27:23.126Z,1015.88
2018-05-26T09:28:23.086Z,1015.97
2018-05-26T09:29:23.059Z,1015.92
2018-05-26T09:30:23.036Z,1015.84
2018-05-26T09:31:23.029Z,1015.84
2018-05-26T09:32:23.039Z,1015.86
2018-05-26T09:33:22.965Z,1015.80
2018-05-26T09:34:22.949Z,1015.80
2018-05-26T09:35:22.910Z,1015.74
2018-05-26T09:36:22.879Z,1015.75
2018-05-26T09:37:22.864Z,1015.75
2018-05-26T09:38:22.853Z,1015.77
2018-05-26T09:39:22.814Z,1015.77
2018-05-26T09:40:22.783Z,1015.76
2018-05-26T09:41:22.760Z,1015.74
2018-05-26T09:42:22.732Z,1015.66
2018-05-26T09:43:22.758Z,1015.67
2018-05-26T09:44:22.719Z,1015.77
2018-05-26T09:45:22.677Z,1015.77
2018-05-26T09:46:30.925Z,1015.85
2018-05-26T09:47:23.078Z,1015.85
2018-05-26T09:48:22.981Z,1015.88
2018-05-26T09:49:22.685Z,1015.87
2018-05-26T09:50:22.591Z,1015.83
2018-05-26T09:51:22.556Z,1015.83
2018-05-26T09:52:22.528Z,1015.81
2018-05-26T09:53:22.472Z,1015.83
2018-05-26T09:54:22.429Z,1015.81
2018-05-26T09:55:32.472Z,1015.80
2018-05-26T09:56:22.403Z,1015.74
2018-05-26T09:57:22.368Z,1015.72
2018-05-26T09:58:25.338Z,1015.69
2018-05-26T09:59:22.536Z,1015.66
2018-05-26T10:00:22.296Z,1015.67
2018-05-26T10:01:22.297Z,1015.71
2018-05-26T10:02:22.247Z,1015.67
2018-05-26T10:03:22.220Z,1015.64
2018-05-26T10:04:22.226Z,1015.64
2018-05-26T10:05:22.189Z,1015.59
2018-05-26T10:06:22.139Z,1015.57
2018-05-26T10:07:22.152Z,1015.54
2018-05-26T10:08:22.106Z,1015.47
2018-05-26T10:09:22.131Z,1015.49
2018-05-26T10:10:32.453Z,1015.51
2018-05-26T10:11:22.021Z,1015.48
2018-05-26T10:12:22.005Z,1015.44
2018-05-26T10:13:21.998Z,1015.43
2018-05-26T10:14:21.937Z,1015.39
2018-05-26T10:15:21.920Z,1015.41
2018-05-26T10:16:21.896Z,1015.43
2018-05-26T10:17:21.864Z,1015.45
2018-05-26T10:18:21.870Z,1015.45
2018-05-26T10:19:21.833Z,1015.45
2018-05-26T10:20:21.790Z,1015.50
2018-05-26T10:21:21.771Z,1015.49
2018-05-26T10:22:21.771Z,1015.47
2018-05-26T10:23:21.739Z,1015.45
2018-05-26T10:24:21.729Z,1015.45
2018-05-26T10:25:21.690Z,1015.44
2018-05-26T10:26:21.660Z,1015.51
2018-05-26T10:27:21.644Z,1015.43
2018-05-26T10:28:21.636Z,1015.40
2018-05-26T10:29:21.587Z,1015.39
2018-05-26T10:30:21.556Z,1015.25
2018-05-26T10:31:21.532Z,1015.16
2018-05-26T10:32:21.517Z,1015.42
2018-05-26T10:33:31.511Z,1015.42
2018-05-26T10:34:21.482Z,1015.41
2018-05-26T10:35:21.430Z,1015.45
2018-05-26T10:36:21.412Z,1015.45
2018-05-26T10:37:21.427Z,1015.36
2018-05-26T10:38:21.361Z,1015.36
2018-05-26T10:39:21.366Z,1015.31
2018-05-26T10:40:21.334Z,1015.32
2018-05-26T10:41:21.305Z,1015.33
2018-05-26T10:42:21.294Z,1015.35
2018-05-26T10:43:21.253Z,1015.35
2018-05-26T10:44:21.266Z,1015.34
2018-05-26T10:45:21.226Z,1015.41
2018-05-26T10:46:21.200Z,1015.38
2018-05-26T10:47:21.177Z,1015.35
2018-05-26T10:48:21.142Z,1015.35
2018-05-26T10:49:21.110Z,1015.32
2018-05-26T10:50:21.124Z,1015.30
2018-05-26T10:51:21.079Z,1015.30
2018-05-26T10:52:21.044Z,1015.24
2018-05-26T10:53:21.016Z,1015.31
2018-05-26T10:54:21.024Z,1015.34
2018-05-26T10:55:31.045Z,1015.26
2018-05-26T10:56:21.261Z,1015.31
2018-05-26T10:57:20.960Z,1015.27
2018-05-26T10:58:23.569Z,1015.37
2018-05-26T10:59:20.890Z,1015.42
2018-05-26T11:00:20.859Z,1015.31
2018-05-26T11:01:20.872Z,1015.40
2018-05-26T11:02:20.808Z,1015.40
2018-05-26T11:03:20.804Z,1014.69
2018-05-26T11:04:20.818Z,1014.73
2018-05-26T11:05:20.764Z,1015.41
2018-05-26T11:06:20.741Z,1015.41
2018-05-26T11:07:20.774Z,1015.42
2018-05-26T11:08:20.703Z,1015.36
2018-05-26T11:09:20.659Z,1015.39
2018-05-26T11:10:20.654Z,1015.30
2018-05-26T11:11:20.619Z,1015.43
2018-05-26T11:12:20.686Z,1015.49
2018-05-26T11:13:20.588Z,1015.51
2018-05-26T11:14:20.550Z,1015.47
2018-05-26T11:15:20.508Z,1015.54
2018-05-26T11:16:20.570Z,1015.56
2018-05-26T11:17:20.460Z,1015.55
2018-05-26T11:18:20.458Z,1014.91
2018-05-26T11:19:20.430Z,1015.02
2018-05-26T11:20:20.396Z,1015.62
2018-05-26T11:21:20.372Z,1015.56
2018-05-26T11:22:20.359Z,1015.50
2018-05-26T11:23:20.327Z,1015.51
2018-05-26T11:24:20.388Z,1015.52
2018-05-26T11:25:20.274Z,1015.57
2018-05-26T11:26:20.264Z,1015.55
2018-05-26T11:27:20.214Z,1015.53
2018-05-26T11:28:20.194Z,1015.57
2018-05-26T11:29:20.170Z,1015.54
2018-05-26T11:30:20.200Z,1015.50
2018-05-26T11:31:20.131Z,1015.54
2018-05-26T11:32:20.107Z,1015.55
2018-05-26T11:33:20.098Z,1015.53
2018-05-26T11:34:20.071Z,1015.54
2018-05-26T11:35:20.047Z,1015.31
2018-05-26T11:36:20.001Z,1015.50
2018-05-26T11:37:20.010Z,1015.56
2018-05-26T11:38:19.974Z,1014.86
2018-05-26T11:39:19.951Z,1015.41
2018-05-26T11:40:19.937Z,1015.42
2018-05-26T11:41:19.881Z,1015.41
2018-05-26T11:42:19.873Z,1015.41
2018-05-26T11:43:19.876Z,1015.41
2018-05-26T11:44:34.076Z,1015.40
2018-05-26T11:45:19.841Z,1015.35
2018-05-26T11:46:21.919Z,1015.39
2018-05-26T11:47:19.883Z,1015.41
2018-05-26T11:48:19.783Z,1015.41
2018-05-26T11:49:19.720Z,1015.49
2018-05-26T11:50:19.698Z,1015.43
2018-05-26T11:51:19.700Z,1015.44
2018-05-26T11:52:19.629Z,1014.93
2018-05-26T11:53:19.656Z,1014.79
2018-05-26T11:54:31.109Z,1015.46
2018-05-26T11:55:19.569Z,1015.48
2018-05-26T11:56:19.583Z,1015.46
2018-05-26T11:57:20.822Z,1015.50
2018-05-26T11:58:19.492Z,1015.45
2018-05-26T11:59:19.496Z,1015.49
2018-05-26T12:00:19.454Z,1015.46
2018-05-26T12:01:19.429Z,1015.39
2018-05-26T12:02:19.430Z,1015.38
2018-05-26T12:03:19.373Z,1015.41
2018-05-26T12:04:19.346Z,1015.37
2018-05-26T12:05:19.337Z,1015.41